Time;durP1;ratioP1;P1;durP2;ratioP2;P2;SDS_P1;SDS_P2;PMS_P1;PMS_P2;Temp;Humidity;BMP_temperature;BMP_pressure;BME280_temperature;BME280_humidity;BME280_pressure;Samples;Min_cycle;Max_cycle;Signal;HPM_P1;HPM_P2
2022/12/30 00:00:58;;;;;;;34.25;3.35;;;;;;;;;;4879278;29;20040;-73
2022/12/30 00:03:25;;;;;;;29.13;3.22;;;;;;;;;;4882682;29;20049;-73
2022/12/30 00:05:51;;;;;;;43.67;5.70;;;;;;;;;;4868692;29;20063;-73
2022/12/30 00:11:02;;;;;;;29.45;3.80;;;;;;;;;;4876932;29;20052;-74
2022/12/30 00:33:43;;;;;;;37.13;4.15;;;7.10;99.90;;;;;;4851298;29;20458;-73
2022/12/30 00:36:09;;;;;;;36.70;4.53;;;;;;;;;;4889632;29;20450;-73
2022/12/30 00:38:35;;;;;;;46.35;5.50;;;;;;;;;;4848492;29;20037;-70
2022/12/30 00:43:46;;;;;;;42.53;4.72;;;;;;;;;;4863130;29;20057;-70
2022/12/30 00:46:13;;;;;;;36.70;3.63;;;;;;;;;;4854696;29;20397;-73
2022/12/30 00:56:52;;;;;;;41.20;3.63;;;;;;;;;;4871766;29;20528;-73
2022/12/30 00:59:18;;;;;;;40.42;3.95;;;;;;;;;;4875970;29;20096;-73
2022/12/30 01:01:44;;;;;;;43.30;4.72;;;;;;;;;;4869408;29;20048;-73
2022/12/30 01:04:10;;;;;;;38.70;4.25;;;;;;;;;;4881526;29;20052;-73
2022/12/30 01:06:37;;;;;;;58.33;7.03;;;7.00;99.90;;;;;;4876901;29;20076;-74
2022/12/30 01:09:04;;;;;;;36.50;4.90;;;;;;;;;;4881431;29;20076;-73
2022/12/30 01:11:30;;;;;;;43.13;5.30;;;;;;;;;;4881692;29;20470;-73
2022/12/30 01:13:56;;;;;;;32.47;4.07;;;;;;;;;;4869308;29;20048;-73
2022/12/30 01:16:22;;;;;;;40.55;5.47;;;;;;;;;;4876275;29;20490;-74
2022/12/30 01:18:48;;;;;;;33.28;3.50;;;;;;;;;;4877133;29;20397;-74
2022/12/30 01:21:14;;;;;;;43.63;4.88;;;;;;;;;;4875462;29;20126;-74
2022/12/30 01:23:40;;;;;;;33.78;4.38;;;;;;;;;;4849704;29;20049;-74
2022/12/30 01:26:07;;;;;;;33.30;4.85;;;;;;;;;;4862882;29;20080;-74
2022/12/30 01:28:34;;;;;;;43.75;4.45;;;;;;;;;;4877423;29;20056;-74
2022/12/30 01:31:00;;;;;;;37.60;3.85;;;;;;;;;;4882217;29;20056;-74
2022/12/30 01:33:26;;;;;;;24.98;3.25;;;;;;;;;;4868835;29;20045;-74
2022/12/30 01:35:54;;;;;;;37.13;3.97;;;6.90;99.90;;;;;;4880929;29;20040;-74
2022/12/30 01:38:20;;;;;;;41.17;4.55;;;;;;;;;;4879183;29;20085;-74
2022/12/30 01:40:46;;;;;;;43.03;5.18;;;;;;;;;;4881426;29;20036;-74
2022/12/30 01:43:13;;;;;;;25.15;3.72;;;;;;;;;;4873210;29;20367;-74
2022/12/30 01:45:39;;;;;;;36.13;4.30;;;;;;;;;;4862822;29;20498;-74
2022/12/30 01:48:29;;;;;;;50.53;5.50;;;6.70;99.90;;;;;;4868580;29;20044;-74
2022/12/30 01:51:26;;;;;;;36.92;4.80;;;6.60;99.90;;;;;;4873676;29;20049;-74
2022/12/30 01:53:54;;;;;;;36.42;4.03;;;;;;;;;;4870774;29;20064;-74
2022/12/30 01:56:38;;;;;;;34.35;3.58;;;6.60;99.90;;;;;;4865915;29;20048;-73
2022/12/30 01:59:17;;;;;;;35.38;5.05;;;6.40;99.90;;;;;;4867555;29;20044;-73
2022/12/30 02:01:43;;;;;;;36.22;3.85;;;;;;;;;;4900177;29;20055;-73
2022/12/30 02:04:11;;;;;;;32.10;4.55;;;;;;;;;;4873870;29;20056;-74
2022/12/30 02:07:05;;;;;;;32.15;4.60;;;6.50;99.90;;;;;;4865877;29;20056;-74
2022/12/30 02:09:33;;;;;;;44.85;5.78;;;6.50;99.90;;;;;;4878883;29;20096;-74
2022/12/30 02:12:00;;;;;;;35.45;4.00;;;6.40;99.90;;;;;;4884278;29;20071;-74
2022/12/30 02:14:29;;;;;;;44.72;4.28;;;6.40;99.90;;;;;;4873680;29;20132;-73
2022/12/30 02:17:21;;;;;;;25.08;3.10;;;6.60;99.90;;;;;;4885821;29;20048;-73
2022/12/30 02:19:47;;;;;;;31.97;4.97;;;;;;;;;;4888786;29;20371;-73
2022/12/30 02:22:30;;;;;;;46.20;4.93;;;;;;;;;;4865689;29;20406;-73
2022/12/30 02:25:14;;;;;;;52.15;7.75;;;6.40;99.90;;;;;;4875322;29;20060;-74
2022/12/30 02:28:01;;;;;;;43.28;4.93;;;;;;;;;;4884095;29;20485;-74
2022/12/30 02:30:52;;;;;;;34.85;4.80;;;6.70;99.90;;;;;;4873007;29;20398;-74
2022/12/30 02:33:24;;;;;;;40.50;5.80;;;;;;;;;;4865450;29;20053;-74
2022/12/30 02:36:05;;;;;;;40.38;5.05;;;6.30;99.90;;;;;;4897600;29;20163;-73
2022/12/30 02:38:57;;;;;;;48.45;4.18;;;;;;;;;;4896845;29;20037;-73
2022/12/30 02:44:38;;;;;;;50.47;4.60;;;6.40;99.90;;;;;;4866655;29;20057;-73
2022/12/30 02:47:04;;;;;;;27.98;5.20;;;;;;;;;;4869238;29;20137;-74
2022/12/30 02:49:32;;;;;;;37.35;5.32;;;;;;;;;;4867308;29;20056;-74
2022/12/30 02:52:14;;;;;;;40.15;5.90;;;;;;;;;;4900630;29;20040;-74
2022/12/30 02:54:41;;;;;;;34.00;3.78;;;;;;;;;;4881019;29;20052;-74
2022/12/30 02:57:34;;;;;;;35.70;3.90;;;6.30;99.90;;;;;;4881698;29;20078;-74
2022/12/30 03:06:47;;;;;;;37.60;5.03;;;6.10;99.90;;;;;;4874163;29;20131;-74
2022/12/30 03:09:30;;;;;;;36.88;6.65;;;6.30;99.90;;;;;;4790957;29;20053;-74
2022/12/30 03:12:14;;;;;;;45.67;4.47;;;6.20;99.90;;;;;;4795895;29;20125;-74
2022/12/30 03:14:43;;;;;;;27.52;5.20;;;;;;;;;;4857368;29;20059;-74
2022/12/30 03:17:12;;;;;;;41.03;4.40;;;;;;;;;;4884001;29;20375;-74
2022/12/30 03:19:40;;;;;;;28.42;4.95;;;;;;;;;;4864602;29;20127;-74
2022/12/30 03:27:03;;;;;;;27.55;5.63;;;;;;;;;;4895316;29;20501;-74
2022/12/30 03:27:41;;;;;;;43.95;6.13;;;6.20;99.90;;;;;;4865430;29;20135;-74
2022/12/30 03:30:07;;;;;;;36.42;4.93;;;;;;;;;;4881055;29;20099;-74
2022/12/30 03:32:33;;;;;;;36.53;5.63;;;;;;;;;;4879263;29;20048;-74
2022/12/30 03:34:59;;;;;;;53.53;5.88;;;;;;;;;;4882551;29;20104;-75
2022/12/30 03:37:28;;;;;;;48.13;6.35;;;6.20;99.90;;;;;;4869950;29;20072;-74
2022/12/30 03:40:13;;;;;;;42.15;5.03;;;;;;;;;;4880867;29;20562;-74
2022/12/30 03:42:39;;;;;;;34.70;5.63;;;;;;;;;;4892799;29;20131;-74
2022/12/30 03:45:07;;;;;;;31.75;4.00;;;;;;;;;;4866970;29;20116;-74
2022/12/30 03:47:33;;;;;;;50.63;5.00;;;;;;;;;;4871438;29;20394;-74
2022/12/30 03:49:59;;;;;;;37.58;6.07;;;;;;;;;;4864308;29;20041;-74
2022/12/30 03:52:25;;;;;;;31.80;6.30;;;;;;;;;;4873235;29;20459;-74
2022/12/30 03:54:51;;;;;;;30.17;4.20;;;;;;;;;;4882380;29;20056;-74
2022/12/30 03:57:18;;;;;;;40.28;5.43;;;;;;;;;;4875025;29;20607;-74
2022/12/30 03:59:44;;;;;;;43.80;6.85;;;;;;;;;;4849016;29;20048;-74
2022/12/30 04:02:10;;;;;;;35.22;5.93;;;;;;;;;;4864947;29;20371;-73
2022/12/30 04:04:36;;;;;;;27.60;3.85;;;;;;;;;;4864079;29;20064;-74
2022/12/30 04:07:03;;;;;;;39.28;5.97;;;;;;;;;;4864971;29;20040;-74
2022/12/30 04:09:29;;;;;;;38.70;4.95;;;;;;;;;;4880570;29;20041;-74
2022/12/30 04:11:55;;;;;;;59.03;7.65;;;;;;;;;;4849019;29;20398;-74
2022/12/30 04:14:21;;;;;;;34.05;5.30;;;;;;;;;;4898857;29;20044;-74
2022/12/30 04:16:47;;;;;;;39.92;6.25;;;;;;;;;;4880959;29;20071;-74
2022/12/30 04:19:13;;;;;;;29.38;5.25;;;;;;;;;;4880791;29;20053;-74
2022/12/30 04:21:39;;;;;;;45.30;7.00;;;;;;;;;;4882107;29;20040;-73
2022/12/30 04:24:06;;;;;;;42.40;6.20;;;;;;;;;;4874070;29;20117;-74
2022/12/30 04:26:32;;;;;;;44.72;6.32;;;;;;;;;;4863730;29;20052;-74
2022/12/30 04:28:58;;;;;;;38.83;7.07;;;;;;;;;;4875717;29;20049;-74
2022/12/30 04:31:24;;;;;;;31.17;5.75;;;;;;;;;;4881689;29;20048;-74
2022/12/30 04:33:51;;;;;;;46.38;6.25;;;5.80;99.90;;;;;;4872983;29;20048;-74
2022/12/30 04:36:18;;;;;;;34.13;6.25;;;;;;;;;;4881797;29;20053;-74
2022/12/30 04:38:44;;;;;;;36.15;6.72;;;;;;;;;;4857867;29;20037;-74
2022/12/30 04:41:10;;;;;;;38.47;7.50;;;;;;;;;;4863393;29;20049;-74
2022/12/30 04:43:38;;;;;;;30.05;6.07;;;;;;;;;;4870044;29;20052;-74
2022/12/30 04:46:04;;;;;;;37.80;7.53;;;;;;;;;;4881614;29;20515;-74
2022/12/30 04:48:30;;;;;;;35.83;7.60;;;;;;;;;;4877591;29;20124;-74
2022/12/30 04:50:56;;;;;;;31.90;6.78;;;;;;;;;;4863435;29;20446;-73
2022/12/30 04:53:22;;;;;;;34.25;7.40;;;;;;;;;;4862310;29;20126;-74
2022/12/30 04:55:55;;;;;;;27.65;7.30;;;;;;;;;;4881453;29;20063;-73
2022/12/30 04:58:22;;;;;;;35.95;8.20;;;;;;;;;;4880887;29;20053;-73
2022/12/30 05:00:49;;;;;;;39.60;8.23;;;6.00;99.90;;;;;;4862921;29;20528;-74
2022/12/30 05:03:15;;;;;;;55.58;10.27;;;;;;;;;;4893114;29;20128;-74
2022/12/30 05:05:41;;;;;;;44.72;9.73;;;;;;;;;;4848652;29;20127;-73
2022/12/30 05:08:08;;;;;;;35.10;10.32;;;;;;;;;;4862935;29;20060;-74
2022/12/30 05:10:35;;;;;;;47.35;10.48;;;6.00;99.90;;;;;;4864396;29;20450;-74
2022/12/30 05:13:01;;;;;;;41.78;9.20;;;;;;;;;;4862759;29;20045;-73
2022/12/30 05:15:27;;;;;;;32.17;8.38;;;;;;;;;;4892221;29;20048;-73
2022/12/30 05:17:53;;;;;;;33.63;8.10;;;;;;;;;;4881738;29;20426;-74
2022/12/30 05:20:20;;;;;;;40.15;7.90;;;;;;;;;;4869849;29;20041;-74
2022/12/30 05:22:46;;;;;;;41.90;8.13;;;;;;;;;;4871978;29;20106;-74
2022/12/30 05:27:56;;;;;;;37.60;7.95;;;;;;;;;;4864967;29;20128;-74
2022/12/30 05:30:23;;;;;;;25.88;7.05;;;;;;;;;;4875564;29;20053;-74
2022/12/30 05:32:49;;;;;;;39.60;8.38;;;;;;;;;;4860159;29;20044;-74
2022/12/30 05:35:15;;;;;;;38.22;7.45;;;;;;;;;;4866589;29;20061;-74
2022/12/30 05:37:41;;;;;;;25.85;5.65;;;;;;;;;;4872844;29;20434;-74
2022/12/30 05:40:07;;;;;;;35.88;6.88;;;;;;;;;;4896358;29;20041;-74
2022/12/30 05:42:33;;;;;;;30.20;6.68;;;;;;;;;;4883338;29;20128;-74
2022/12/30 05:45:00;;;;;;;33.65;6.07;;;;;;;;;;4869367;29;20056;-73
2022/12/30 05:47:26;;;;;;;30.83;7.70;;;;;;;;;;4885190;29;20044;-73
2022/12/30 05:49:52;;;;;;;36.25;6.80;;;;;;;;;;4852179;29;20128;-74
2022/12/30 05:52:18;;;;;;;41.22;6.95;;;;;;;;;;4866099;29;20478;-74
2022/12/30 05:54:44;;;;;;;32.65;7.85;;;;;;;;;;4866148;29;20742;-74
2022/12/30 05:57:10;;;;;;;32.45;6.68;;;;;;;;;;4900355;29;20374;-74
2022/12/30 05:59:36;;;;;;;49.75;7.93;;;;;;;;;;4901030;29;20057;-74
2022/12/30 06:02:02;;;;;;;31.25;8.63;;;;;;;;;;4874657;29;20045;-74
2022/12/30 06:04:28;;;;;;;35.33;8.25;;;;;;;;;;4872272;29;20128;-74
2022/12/30 06:06:54;;;;;;;44.83;7.85;;;;;;;;;;4897515;29;20045;-74
2022/12/30 06:09:21;;;;;;;32.17;6.22;;;;;;;;;;4873630;29;20044;-74
2022/12/30 06:11:47;;;;;;;33.58;6.85;;;;;;;;;;4878026;29;20457;-74
2022/12/30 06:14:15;;;;;;;35.75;6.40;;;;;;;;;;4884268;29;20048;-74
2022/12/30 06:16:42;;;;;;;30.13;6.72;;;6.30;99.90;;;;;;4884185;29;20113;-73
2022/12/30 06:19:08;;;;;;;34.42;6.20;;;;;;;;;;4884347;29;20557;-73
2022/12/30 06:21:35;;;;;;;40.88;7.93;;;;;;;;;;4901168;29;20040;-74
2022/12/30 06:24:01;;;;;;;40.50;6.80;;;;;;;;;;4884127;29;20044;-74
2022/12/30 06:26:27;;;;;;;33.33;7.40;;;;;;;;;;4857001;29;20041;-74
2022/12/30 06:28:53;;;;;;;42.22;7.10;;;;;;;;;;4867464;29;20049;-73
2022/12/30 06:31:19;;;;;;;38.17;6.35;;;;;;;;;;4883264;29;20040;-73
2022/12/30 06:33:45;;;;;;;31.60;6.25;;;;;;;;;;4868027;29;20505;-74
2022/12/30 06:36:12;;;;;;;39.78;6.05;;;;;;;;;;4883806;29;20045;-74
2022/12/30 06:38:38;;;;;;;33.85;6.35;;;;;;;;;;4880983;29;20044;-74
2022/12/30 06:41:05;;;;;;;25.92;5.63;;;6.20;99.90;;;;;;4854643;29;20053;-73
2022/12/30 06:43:31;;;;;;;31.00;6.47;;;;;;;;;;4868308;29;20080;-74
2022/12/30 06:45:57;;;;;;;27.33;5.65;;;;;;;;;;4849927;29;20049;-75
2022/12/30 06:48:23;;;;;;;24.20;5.72;;;;;;;;;;4875582;29;20048;-75
2022/12/30 06:50:49;;;;;;;30.45;6.63;;;;;;;;;;4870560;29;20480;-76
2022/12/30 06:53:15;;;;;;;35.53;5.90;;;;;;;;;;4872725;29;20052;-75
2022/12/30 06:55:42;;;;;;;32.97;6.32;;;;;;;;;;4868553;29;20044;-75
2022/12/30 06:58:08;;;;;;;29.20;8.18;;;;;;;;;;4871285;29;20049;-75
2022/12/30 07:00:34;;;;;;;29.10;6.32;;;;;;;;;;4849681;29;20041;-74
2022/12/30 07:03:00;;;;;;;30.05;6.10;;;;;;;;;;4877981;29;20057;-74
2022/12/30 07:05:26;;;;;;;25.45;6.68;;;;;;;;;;4881326;29;20603;-74
2022/12/30 07:07:52;;;;;;;28.70;5.78;;;;;;;;;;4881901;29;20127;-75
2022/12/30 07:10:18;;;;;;;24.98;6.10;;;;;;;;;;4882834;29;20049;-75
2022/12/30 07:12:45;;;;;;;32.33;7.03;;;;;;;;;;4896770;29;20041;-74
2022/12/30 07:15:11;;;;;;;33.55;6.78;;;;;;;;;;4882133;29;20052;-75
2022/12/30 07:17:37;;;;;;;28.88;7.53;;;;;;;;;;4880485;29;20101;-74
2022/12/30 07:20:03;;;;;;;24.13;6.45;;;;;;;;;;4851973;29;20445;-76
2022/12/30 07:22:29;;;;;;;28.05;6.97;;;;;;;;;;4882408;29;20072;-75
2022/12/30 07:24:55;;;;;;;36.30;6.63;;;;;;;;;;4882558;29;20409;-75
2022/12/30 07:27:22;;;;;;;34.35;6.75;;;;;;;;;;4882981;29;20393;-75
2022/12/30 07:29:48;;;;;;;28.73;6.68;;;;;;;;;;4882380;29;20474;-75
2022/12/30 07:32:14;;;;;;;24.92;6.97;;;;;;;;;;4882636;29;20124;-75
2022/12/30 07:34:40;;;;;;;29.42;7.72;;;;;;;;;;4895973;29;20041;-76
2022/12/30 07:37:06;;;;;;;33.33;6.75;;;;;;;;;;4894111;29;20167;-76
2022/12/30 07:39:32;;;;;;;37.95;7.20;;;;;;;;;;4880917;29;20044;-75
2022/12/30 07:41:59;;;;;;;42.65;8.40;;;;;;;;;;4875789;29;20033;-76
2022/12/30 07:44:25;;;;;;;28.50;6.68;;;;;;;;;;4894404;29;20111;-76
2022/12/30 07:46:51;;;;;;;39.90;6.00;;;;;;;;;;4867170;29;20052;-75
2022/12/30 07:49:17;;;;;;;24.77;5.35;;;;;;;;;;4897063;29;20507;-76
2022/12/30 07:51:44;;;;;;;26.98;6.40;;;;;;;;;;4882574;29;20048;-76
2022/12/30 07:54:10;;;;;;;28.13;5.82;;;;;;;;;;4897898;29;20080;-76
2022/12/30 07:56:37;;;;;;;34.95;5.93;;;;;;;;;;4870667;29;20040;-76
2022/12/30 07:59:03;;;;;;;20.75;5.50;;;;;;;;;;4882585;29;20123;-76
2022/12/30 08:01:30;;;;;;;26.33;5.07;;;;;;;;;;4881921;29;20405;-76
2022/12/30 08:03:56;;;;;;;30.58;5.07;;;;;;;;;;4867117;29;20048;-75
2022/12/30 08:06:22;;;;;;;31.35;6.30;;;;;;;;;;4870559;29;20132;-75
2022/12/30 08:08:48;;;;;;;28.73;5.32;;;;;;;;;;4865807;29;20040;-75
2022/12/30 08:11:15;;;;;;;23.92;4.95;;;;;;;;;;4853879;29;20052;-75
2022/12/30 08:13:42;;;;;;;35.05;6.00;;;;;;;;;;4873685;29;20052;-75
2022/12/30 08:16:11;;;;;;;30.60;5.78;;;5.20;99.90;;;;;;4876097;29;20053;-75
2022/12/30 08:18:37;;;;;;;27.77;5.63;;;;;;;;;;4890617;29;20127;-75
2022/12/30 08:21:07;;;;;;;29.77;6.78;;;5.40;99.90;;;;;;4854181;29;20132;-76
2022/12/30 08:23:33;;;;;;;18.25;4.93;;;;;;;;;;4864894;29;20044;-75
2022/12/30 08:26:10;;;;;;;22.13;5.50;;;;;;;;;;4866172;29;20052;-75
2022/12/30 08:28:36;;;;;;;30.45;5.45;;;;;;;;;;4889354;29;20195;-75
2022/12/30 08:31:10;;;;;;;18.58;5.15;;;;;;;;;;4875523;29;20053;-71
2022/12/30 08:33:37;;;;;;;30.00;4.80;;;5.40;99.90;;;;;;4888974;29;20163;-71
2022/12/30 08:36:05;;;;;;;29.63;5.75;;;5.30;99.90;;;;;;4883755;29;20512;-71
2022/12/30 08:38:33;;;;;;;18.20;5.10;;;;;;;;;;4897903;29;20056;-71
2022/12/30 08:41:07;;;;;;;37.55;5.30;;;5.30;99.90;;;;;;4882909;29;20052;-71
2022/12/30 08:43:33;;;;;;;25.58;5.97;;;;;;;;;;4881494;29;20188;-71
2022/12/30 08:45:59;;;;;;;29.20;5.05;;;;;;;;;;4878133;29;20057;-71
2022/12/30 08:48:26;;;;;;;26.73;5.75;;;;;;;;;;4869112;29;20477;-71
2022/12/30 08:50:55;;;;;;;29.85;4.68;;;;;;;;;;4892639;29;20131;-71
2022/12/30 08:53:21;;;;;;;18.90;4.53;;;;;;;;;;4882753;29;20059;-70
2022/12/30 08:55:48;;;;;;;34.97;5.30;;;;;;;;;;4891095;29;20049;-70
2022/12/30 08:58:14;;;;;;;22.42;4.97;;;;;;;;;;4894315;29;20051;-70
2022/12/30 09:00:40;;;;;;;27.90;5.68;;;;;;;;;;4880954;29;20049;-71
2022/12/30 09:03:07;;;;;;;26.55;6.05;;;;;;;;;;4894105;29;20040;-70
2022/12/30 09:05:33;;;;;;;27.92;5.70;;;;;;;;;;4881589;29;20059;-70
2022/12/30 09:07:59;;;;;;;30.67;5.90;;;;;;;;;;4880904;29;20108;-70
2022/12/30 09:10:25;;;;;;;25.98;6.18;;;;;;;;;;4880848;29;20855;-70
2022/12/30 09:12:52;;;;;;;26.30;5.18;;;;;;;;;;4858146;29;20052;-71
2022/12/30 09:15:18;;;;;;;29.98;5.72;;;;;;;;;;4873486;29;20040;-70
2022/12/30 09:17:44;;;;;;;38.40;5.47;;;;;;;;;;4872020;29;20041;-71
2022/12/30 09:20:10;;;;;;;36.28;5.60;;;;;;;;;;4847528;29;20052;-70
2022/12/30 09:22:36;;;;;;;33.22;6.07;;;;;;;;;;4876934;29;20105;-70
2022/12/30 09:25:02;;;;;;;23.00;5.63;;;;;;;;;;4866771;29;20083;-71
2022/12/30 09:27:28;;;;;;;21.13;6.82;;;;;;;;;;4893327;29;20033;-75
2022/12/30 09:29:55;;;;;;;29.02;5.43;;;;;;;;;;4862754;29;20049;-75
2022/12/30 09:32:22;;;;;;;22.25;5.72;;;;;;;;;;4880579;29;20045;-75
2022/12/30 09:34:48;;;;;;;29.55;5.53;;;;;;;;;;4864876;29;20067;-76
2022/12/30 09:37:33;;;;;;;27.10;5.60;;;;;;;;;;4880534;29;20044;-77
2022/12/30 10:06:55;;;;;;;30.05;5.68;;;;;;;;;;4749764;30;20078;-77
2022/12/30 10:13:20;;;;;;;36.10;5.82;;;;;;;;;;4744516;30;20064;-77
2022/12/30 10:16:20;;;;;;;13.75;4.47;;;;;;;;;;4741654;30;20052;-76
2022/12/30 10:19:08;;;;;;;;;;;;;;;;;;;;;
2022/12/30 10:21:59;;;;;;;;;;;;;;;;;;;;;
2022/12/30 10:24:35;;;;;;;30.42;5.07;;;;;;;;;;4803397;29;20130;-77
2022/12/30 10:27:48;;;;;;;24.92;5.22;;;;;;;;;;4854735;29;20541;-76
2022/12/30 10:43:24;;;;;;;29.70;7.25;;;;;;;;;;4855332;29;20050;-75
2022/12/30 10:45:53;;;;;;;39.22;6.65;;;;;;;;;;4879115;29;20055;-75
2022/12/30 10:48:37;;;;;;;39.33;6.78;;;;;;;;;;4887448;29;20036;-74
2022/12/30 10:51:03;;;;;;;29.42;7.40;;;;;;;;;;4890391;29;20048;-74
2022/12/30 10:53:31;;;;;;;23.98;6.43;;;6.30;99.90;;;;;;4889968;29;20055;-75
2022/12/30 10:56:01;;;;;;;22.67;6.95;;;6.30;99.90;;;;;;4881054;29;20055;-74
2022/12/30 10:58:30;;;;;;;21.70;6.63;;;;;;;;;;4894368;29;20107;-75
2022/12/30 11:00:59;;;;;;;25.05;6.10;;;;;;;;;;4896424;29;20045;-75
2022/12/30 11:03:31;;;;;;;21.30;6.55;;;;;;;;;;4894567;29;20050;-75
2022/12/30 11:05:58;;;;;;;57.63;6.97;;;;;;;;;;4896346;29;20048;-74
2022/12/30 11:08:29;;;;;;;23.85;5.30;;;6.20;99.90;;;;;;4884123;29;20044;-75
2022/12/30 11:10:59;;;;;;;18.13;5.97;;;;;;;;;;4902314;29;20510;-75
2022/12/30 11:16:11;;;;;;;23.90;5.93;;;;;;;;;;4894221;29;20468;-75
2022/12/30 11:18:37;;;;;;;20.98;6.13;;;;;;;;;;4873649;29;20072;-75
2022/12/30 11:21:06;;;;;;;34.20;6.47;;;;;;;;;;4868075;29;20056;-75
2022/12/30 11:23:32;;;;;;;29.92;6.43;;;;;;;;;;4887107;29;20115;-75
2022/12/30 11:26:06;;;;;;;21.87;6.13;;;;;;;;;;4895744;29;20051;-75
2022/12/30 11:28:43;;;;;;;26.98;5.50;;;6.60;99.90;;;;;;4893923;29;20300;-75
2022/12/30 11:31:13;;;;;;;21.80;6.88;;;;;;;;;;4893752;29;20086;-75
2022/12/30 11:33:48;;;;;;;29.33;6.38;;;6.60;99.90;;;;;;4878217;29;20047;-75
2022/12/30 11:36:16;;;;;;;25.15;5.68;;;;;;;;;;4873519;29;20087;-75
2022/12/30 11:38:44;;;;;;;18.30;6.75;;;6.50;99.90;;;;;;4859264;29;20052;-75
2022/12/30 11:41:16;;;;;;;31.15;5.75;;;;;;;;;;4865414;29;20041;-71
2022/12/30 11:43:58;;;;;;;21.60;5.20;;;6.50;99.90;;;;;;4879366;29;20059;-71
2022/12/30 11:46:26;;;;;;;24.83;6.18;;;;;;;;;;4866559;29;20041;-71
2022/12/30 11:48:58;;;;;;;19.30;4.80;;;6.50;99.90;;;;;;4874069;29;20398;-71
2022/12/30 11:51:26;;;;;;;21.02;5.63;;;;;;;;;;4869207;29;20072;-71
2022/12/30 11:54:12;;;;;;;20.17;5.10;;;6.60;99.90;;;;;;4866063;29;20148;-71
2022/12/30 11:56:50;;;;;;;22.77;4.80;;;;;;;;;;4882368;29;20486;-71
2022/12/30 11:59:18;;;;;;;15.13;4.78;;;;;;;;;;4887648;29;20047;-71
2022/12/30 12:01:52;;;;;;;18.17;4.82;;;6.60;99.90;;;;;;4901647;29;20071;-71
2022/12/30 12:04:40;;;;;;;14.95;4.30;;;6.60;99.90;;;;;;4885239;29;20096;-74
2022/12/30 12:07:25;;;;;;;22.75;4.90;;;6.70;99.90;;;;;;4901372;29;20048;-72
2022/12/30 12:10:00;;;;;;;17.35;4.78;;;;;;;;;;4885531;29;20036;-72
2022/12/30 12:12:28;;;;;;;15.32;4.32;;;;;;;;;;4885724;29;20051;-73
2022/12/30 12:15:00;;;;;;;12.18;4.05;;;;;;;;;;4885233;29;20048;-73
2022/12/30 12:17:27;;;;;;;15.85;4.75;;;;;;;;;;4885766;29;20131;-73
2022/12/30 12:19:58;;;;;;;13.25;4.22;;;;;;;;;;4873167;29;20040;-72
2022/12/30 12:22:28;;;;;;;22.20;4.83;;;;;;;;;;4866973;29;20176;-72
2022/12/30 12:24:59;;;;;;;18.98;4.60;;;6.80;99.90;;;;;;4882388;29;20036;-71
2022/12/30 12:27:26;;;;;;;17.83;3.75;;;;;;;;;;4882209;29;20092;-71
2022/12/30 12:29:55;;;;;;;21.75;4.32;;;7.00;99.90;;;;;;4851448;29;20083;-72
2022/12/30 12:32:24;;;;;;;23.15;4.75;;;;;;;;;;4866613;29;20044;-72
2022/12/30 12:35:44;;;;;;;17.08;3.85;;;7.10;99.90;;;;;;4882170;29;20039;-72
2022/12/30 12:38:19;;;;;;;10.45;3.60;;;;;;;;;;4774528;29;20158;-71
2022/12/30 12:40:58;;;;;;;15.23;4.05;;;7.00;99.90;;;;;;4880342;29;20127;-72
2022/12/30 12:43:46;;;;;;;17.90;3.72;;;7.10;99.90;;;;;;4866491;29;20059;-72
2022/12/30 12:46:13;;;;;;;16.10;4.57;;;;;;;;;;4866560;29;20048;-73
2022/12/30 12:48:40;;;;;;;15.85;3.35;;;;;;;;;;4866232;29;20044;-71
2022/12/30 12:51:25;;;;;;;14.52;4.50;;;;;;;;;;4866270;29;20466;-73
2022/12/30 12:54:17;;;;;;;15.20;4.20;;;6.90;99.90;;;;;;4881921;29;20050;-72
2022/12/30 12:56:46;;;;;;;13.68;3.63;;;;;;;;;;4854638;29;20053;-73
2022/12/30 12:59:15;;;;;;;15.20;4.40;;;;;;;;;;4849556;29;20394;-72
2022/12/30 13:01:46;;;;;;;17.77;4.10;;;;;;;;;;4881441;29;20045;-72
2022/12/30 13:04:15;;;;;;;12.68;4.72;;;;;;;;;;4866706;29;20044;-72
2022/12/30 13:06:53;;;;;;;16.35;4.07;;;;;;;;;;4865897;29;20051;-72
2022/12/30 13:10:15;;;;;;;15.07;3.85;;;7.00;99.90;;;;;;4865746;29;20383;-72
2022/12/30 13:13:09;;;;;;;19.92;4.07;;;6.80;99.90;;;;;;4846382;29;20201;-72
2022/12/30 13:15:42;;;;;;;19.92;4.30;;;7.20;99.90;;;;;;4866170;29;20494;-73
2022/12/30 13:18:19;;;;;;;14.93;4.30;;;;;;;;;;4865950;29;20127;-73
2022/12/30 13:20:55;;;;;;;16.10;3.92;;;7.20;99.90;;;;;;4881495;29;20036;-72
2022/12/30 13:23:25;;;;;;;14.70;3.85;;;7.40;99.90;;;;;;4881685;29;20051;-72
2022/12/30 13:26:00;;;;;;;10.02;3.00;;;7.30;99.90;;;;;;4865838;29;20059;-72
2022/12/30 13:28:29;;;;;;;12.85;3.08;;;7.30;99.90;;;;;;4881408;29;20063;-72
2022/12/30 13:31:04;;;;;;;13.95;2.80;;;7.30;99.90;;;;;;4865961;29;20059;-72
2022/12/30 13:33:40;;;;;;;14.43;2.88;;;;;;;;;;4865706;29;20053;-72
2022/12/30 13:36:07;;;;;;;8.13;2.50;;;;;;;;;;4881123;29;20070;-72
2022/12/30 13:38:36;;;;;;;15.27;3.00;;;;;;;;;;4880915;29;20140;-72
2022/12/30 13:41:30;;;;;;;17.90;3.58;;;7.50;99.90;;;;;;4865895;29;20063;-72
2022/12/30 13:43:58;;;;;;;18.55;3.25;;;;;;;;;;4880880;29;20037;-72
2022/12/30 13:46:33;;;;;;;20.20;3.83;;;7.60;99.90;;;;;;4882050;29;20048;-72
2022/12/30 13:49:22;;;;;;;16.80;3.08;;;;;;;;;;4896899;29;20052;-72
2022/12/30 13:51:57;;;;;;;11.30;3.08;;;;;;;;;;4869251;29;20049;-72
2022/12/30 13:54:26;;;;;;;13.80;4.15;;;;;;;;;;4869328;29;20447;-73
2022/12/30 13:56:59;;;;;;;16.38;2.90;;;7.60;99.90;;;;;;4869248;29;20040;-72
2022/12/30 13:59:28;;;;;;;23.02;3.28;;;;;;;;;;4869411;29;20067;-73
2022/12/30 14:02:21;;;;;;;9.85;3.40;;;7.60;99.90;;;;;;4869061;29;20036;-72
2022/12/30 14:04:48;;;;;;;;;;;7.60;99.90;;;;;;4854339;29;20405;-72
2022/12/30 14:07:33;;;;;;;17.27;3.35;;;;;;;;;;4903759;29;19919;-73
2022/12/30 14:10:18;;;;;;;12.98;3.30;;;7.70;99.90;;;;;;4887816;29;20051;-72
2022/12/30 14:12:45;;;;;;;12.23;2.85;;;;;;;;;;4884607;29;20059;-72
2022/12/30 14:15:49;;;;;;;19.48;2.85;;;7.90;99.90;;;;;;4853914;29;20135;-73
2022/12/30 14:18:21;;;;;;;11.77;3.13;;;;;;;;;;4869179;29;20413;-73
2022/12/30 14:20:58;;;;;;;12.40;3.17;;;7.70;99.90;;;;;;4871064;29;20040;-73
2022/12/30 14:23:41;;;;;;;12.55;3.13;;;;;;;;;;4887650;29;20048;-72
2022/12/30 14:26:20;;;;;;;12.82;3.25;;;;;;;;;;4887428;29;20040;-72
2022/12/30 14:28:57;;;;;;;22.52;3.53;;;7.70;99.90;;;;;;4887653;29;20082;-73
2022/12/30 14:31:31;;;;;;;15.75;2.92;;;7.70;99.90;;;;;;4902492;29;20048;-72
2022/12/30 14:33:59;;;;;;;23.13;3.35;;;7.70;99.90;;;;;;4887212;29;20531;-72
2022/12/30 14:36:31;;;;;;;16.52;3.17;;;7.80;99.90;;;;;;4886753;29;20119;-72
2022/12/30 14:39:00;;;;;;;18.47;3.23;;;7.90;99.90;;;;;;4887231;29;20048;-72
2022/12/30 14:41:36;;;;;;;16.95;3.00;;;;;;;;;;4886534;29;20104;-72
2022/12/30 14:44:04;;;;;;;16.75;3.10;;;;;;;;;;4877626;29;20049;-72
2022/12/30 14:46:40;;;;;;;18.20;4.63;;;;;;;;;;4853714;29;20120;-72
2022/12/30 14:49:25;;;;;;;14.90;4.05;;;;;;;;;;4868622;29;20047;-72
2022/12/30 14:51:58;;;;;;;12.18;3.65;;;7.70;99.90;;;;;;4874998;29;20434;-72
2022/12/30 14:54:40;;;;;;;9.32;3.47;;;;;;;;;;4862933;29;20045;-73
2022/12/30 14:57:12;;;;;;;16.02;4.78;;;;;;;;;;4875281;29;20127;-72
2022/12/30 14:59:50;;;;;;;13.38;3.65;;;;;;;;;;4851594;29;20471;-73
2022/12/30 15:02:20;;;;;;;12.05;3.00;;;;;;;;;;4868783;29;20057;-73
2022/12/30 15:04:47;;;;;;;21.08;3.28;;;7.60;99.90;;;;;;4862213;29;20037;-72
2022/12/30 15:07:21;;;;;;;8.75;2.85;;;7.60;99.90;;;;;;4863289;29;20070;-72
2022/12/30 15:09:52;;;;;;;11.82;3.15;;;7.90;99.90;;;;;;4858386;29;20048;-73
2022/12/30 15:12:24;;;;;;;16.63;3.60;;;7.90;99.90;;;;;;4873987;29;20047;-73
2022/12/30 15:14:59;;;;;;;16.45;5.30;;;7.80;99.90;;;;;;4858015;29;20041;-73
2022/12/30 15:17:33;;;;;;;8.25;3.30;;;;;;;;;;4886688;29;20047;-72
2022/12/30 15:20:00;;;;;;;9.85;3.28;;;;;;;;;;4873099;29;20040;-73
2022/12/30 15:22:29;;;;;;;7.35;3.42;;;7.70;99.90;;;;;;4866864;29;20044;-73
2022/12/30 15:24:55;;;;;;;15.98;4.70;;;;;;;;;;4876470;29;20535;-72
2022/12/30 15:27:25;;;;;;;8.30;3.65;;;7.60;99.90;;;;;;4901782;29;20485;-73
2022/12/30 15:29:52;;;;;;;13.77;3.85;;;;;;;;;;4879726;29;20138;-72
2022/12/30 15:32:24;;;;;;;12.40;3.13;;;;;;;;;;4882398;29;20105;-73
2022/12/30 15:34:51;;;;;;;11.68;4.28;;;;;;;;;;4862524;29;20128;-72
2022/12/30 15:37:22;;;;;;;15.65;4.57;;;;;;;;;;4857724;29;20056;-73
2022/12/30 15:39:52;;;;;;;20.00;4.55;;;7.60;99.90;;;;;;4850910;29;20531;-72
2022/12/30 15:42:24;;;;;;;11.00;4.47;;;7.90;99.90;;;;;;4881608;29;20041;-73
2022/12/30 15:44:55;;;;;;;13.90;4.47;;;;;;;;;;4864681;29;20371;-73
2022/12/30 15:47:26;;;;;;;13.38;4.07;;;;;;;;;;4871074;29;20045;-72
2022/12/30 15:49:54;;;;;;;16.35;4.57;;;7.70;99.90;;;;;;4874467;29;20531;-73
2022/12/30 15:52:26;;;;;;;9.63;4.07;;;7.70;99.90;;;;;;4871033;29;20068;-72
2022/12/30 15:54:57;;;;;;;11.45;3.70;;;;;;;;;;4898678;29;20044;-72
2022/12/30 15:57:32;;;;;;;11.48;4.72;;;;;;;;;;4872473;29;20063;-73
2022/12/30 16:00:04;;;;;;;16.95;4.50;;;;;;;;;;4882158;29;20152;-72